Time;durP1;ratioP1;P1;durP2;ratioP2;P2;SDS_P1;SDS_P2;PMS_P1;PMS_P2;Temp;Humidity;BMP_temperature;BMP_pressure;BME280_temperature;BME280_humidity;BME280_pressure;Samples;Min_cycle;Max_cycle;Signal;HPM_P1;HPM_P2
2022/12/11 00:01:12;;;;;;;1999.90;999.90;;;0.90;1.00;;;;;;5013491;28;20165;-68
2022/12/11 00:03:38;;;;;;;1999.90;999.90;;;1.00;1.00;;;;;;5013585;28;20165;-68
2022/12/11 00:06:09;;;;;;;1999.90;999.90;;;0.90;1.00;;;;;;5013406;28;20256;-68
2022/12/11 00:08:35;;;;;;;1999.90;999.90;;;0.90;1.00;;;;;;5013179;28;20462;-68
2022/12/11 00:11:01;;;;;;;1999.90;999.90;;;0.90;1.00;;;;;;5013288;28;20165;-68
2022/12/11 00:13:27;;;;;;;1999.90;999.90;;;0.90;1.00;;;;;;5013133;28;20196;-68
2022/12/11 00:15:52;;;;;;;1999.90;999.90;;;1.00;1.00;;;;;;5013394;28;20412;-68
2022/12/11 00:18:18;;;;;;;1999.90;999.90;;;1.10;1.00;;;;;;5013014;28;20404;-68
2022/12/11 00:20:43;;;;;;;1999.90;999.90;;;1.10;1.00;;;;;;5013090;28;20208;-68
2022/12/11 00:23:12;;;;;;;1999.90;999.90;;;1.10;1.00;;;;;;5013096;28;20165;-68
2022/12/11 00:25:45;;;;;;;1999.90;999.90;;;1.10;1.00;;;;;;5013028;28;20176;-68
2022/12/11 00:28:11;;;;;;;1999.90;999.90;;;1.10;1.00;;;;;;5012777;28;20299;-68
2022/12/11 00:30:43;;;;;;;1999.90;999.90;;;1.10;1.00;;;;;;5012511;28;20778;-68
2022/12/11 00:33:10;;;;;;;1999.90;999.90;;;1.10;1.00;;;;;;5013001;28;20184;-68
2022/12/11 00:35:43;;;;;;;1999.90;999.90;;;1.10;1.00;;;;;;5012734;28;20223;-68
2022/12/11 00:38:18;;;;;;;1999.90;999.90;;;1.00;1.00;;;;;;5012545;28;20314;-68
2022/12/11 00:40:44;;;;;;;1999.90;999.90;;;1.00;1.00;;;;;;5012853;28;20239;-68
2022/12/11 00:43:10;;;;;;;1999.90;999.90;;;1.00;1.00;;;;;;5012767;28;20256;-68
2022/12/11 00:45:37;;;;;;;1999.90;999.90;;;1.10;1.00;;;;;;5012713;28;20550;-68
2022/12/11 00:48:03;;;;;;;1999.90;999.90;;;1.10;1.00;;;;;;5012506;28;20173;-68
2022/12/11 00:50:28;;;;;;;1999.90;999.90;;;1.00;1.00;;;;;;5012363;28;20216;-68
2022/12/11 00:52:54;;;;;;;1999.90;999.90;;;1.10;1.00;;;;;;5012604;28;20634;-68
2022/12/11 00:55:20;;;;;;;1999.90;999.90;;;1.10;1.00;;;;;;5012529;28;20204;-68
2022/12/11 00:57:46;;;;;;;1999.90;999.90;;;1.10;1.00;;;;;;5012270;28;20165;-68
2022/12/11 01:00:12;;;;;;;1999.90;999.90;;;1.00;1.00;;;;;;5012386;28;20681;-68
2022/12/11 01:02:38;;;;;;;1999.90;999.90;;;1.00;1.00;;;;;;5012498;28;20181;-68
2022/12/11 01:05:04;;;;;;;1999.90;999.90;;;1.00;1.00;;;;;;5012431;28;20173;-68
2022/12/11 01:07:29;;;;;;;1999.90;999.90;;;1.00;1.00;;;;;;5012378;28;20244;-68
2022/12/11 01:12:39;;;;;;;1999.90;999.90;;;1.00;3.40;;;;;;5012384;28;20665;-68
2022/12/11 01:15:05;;;;;;;1999.90;999.90;;;1.10;4.50;;;;;;5012315;28;20208;-68
2022/12/11 01:17:31;;;;;;;1999.90;999.90;;;1.10;5.10;;;;;;5012135;28;20165;-68
2022/12/11 01:19:56;;;;;;;1999.90;999.90;;;1.10;1.00;;;;;;5012066;28;20273;-68
2022/12/11 01:22:22;;;;;;;1999.90;999.90;;;1.10;1.00;;;;;;5012238;28;20169;-68
2022/12/11 01:24:48;;;;;;;1999.90;999.90;;;1.10;1.00;;;;;;5012242;28;20572;-68
2022/12/11 01:27:13;;;;;;;1999.90;999.90;;;1.10;1.00;;;;;;5012039;28;20173;-68
2022/12/11 01:29:39;;;;;;;1999.90;999.90;;;1.10;1.00;;;;;;5011999;28;20193;-68
2022/12/11 01:32:04;;;;;;;1999.90;999.90;;;1.20;1.00;;;;;;5012180;28;20173;-68
2022/12/11 01:34:32;;;;;;;1999.90;999.90;;;1.20;1.00;;;;;;5011996;28;20188;-68
2022/12/11 01:36:57;;;;;;;1999.90;999.90;;;1.20;1.00;;;;;;5012086;28;20227;-68
2022/12/11 01:39:23;;;;;;;1999.90;999.90;;;1.10;1.00;;;;;;5011963;28;20666;-68
2022/12/11 01:41:49;;;;;;;1999.90;999.90;;;1.10;1.00;;;;;;5012087;28;20169;-68
2022/12/11 01:44:14;;;;;;;1999.90;999.90;;;1.10;1.00;;;;;;5016028;28;20222;-68
2022/12/11 01:46:40;;;;;;;1999.90;999.90;;;1.10;1.00;;;;;;5015951;28;20592;-68
2022/12/11 01:49:12;;;;;;;1999.90;999.90;;;1.00;1.00;;;;;;5015580;28;20203;-68
2022/12/11 01:51:47;;;;;;;1999.90;999.90;;;1.00;1.00;;;;;;5015943;28;20191;-68
2022/12/11 01:54:15;;;;;;;1999.90;999.90;;;1.10;1.00;;;;;;5015813;28;20207;-68
2022/12/11 01:56:43;;;;;;;1999.90;999.90;;;1.10;1.00;;;;;;5015722;28;20173;-68
2022/12/11 01:59:12;;;;;;;1999.90;999.90;;;1.00;1.00;;;;;;5015633;28;20197;-68
2022/12/11 02:01:50;;;;;;;1999.90;999.90;;;1.00;1.00;;;;;;5015699;28;20223;-68
2022/12/11 02:04:17;;;;;;;1999.90;999.90;;;1.00;1.00;;;;;;5015732;28;20634;-68
2022/12/11 02:06:45;;;;;;;1999.90;999.90;;;0.90;1.00;;;;;;5015388;28;20173;-68
2022/12/11 02:09:17;;;;;;;1999.90;999.90;;;1.00;1.00;;;;;;5015447;28;20189;-68
2022/12/11 02:12:03;;;;;;;1999.90;999.90;;;0.90;1.00;;;;;;5015550;28;20177;-68
2022/12/11 02:14:50;;;;;;;1999.90;999.90;;;0.90;1.00;;;;;;5015640;28;20208;-68
2022/12/11 02:17:26;;;;;;;1999.90;999.90;;;0.90;1.00;;;;;;5015276;28;20199;-68
2022/12/11 02:20:25;;;;;;;1999.90;999.90;;;0.80;1.00;;;;;;5015296;28;20188;-69
2022/12/11 02:23:02;;;;;;;1999.90;999.90;;;0.80;1.00;;;;;;5015345;28;20181;-68
2022/12/11 02:25:57;;;;;;;1999.90;999.90;;;0.80;1.00;;;;;;5015325;28;20179;-68
2022/12/11 02:28:31;;;;;;;1999.90;999.90;;;0.70;1.00;;;;;;4995807;28;20207;-68
2022/12/11 02:31:04;;;;;;;1999.90;999.90;;;0.70;6.10;;;;;;5015158;28;20164;-68
2022/12/11 02:33:52;;;;;;;1999.90;999.90;;;0.80;8.70;;;;;;5015044;28;20260;-68
2022/12/11 02:36:22;;;;;;;1999.90;999.90;;;0.80;11.30;;;;;;5015090;28;20178;-68
2022/12/11 02:38:50;;;;;;;1999.90;999.90;;;0.80;8.10;;;;;;5014817;28;20193;-68
2022/12/11 02:41:18;;;;;;;1999.90;999.90;;;0.80;9.70;;;;;;5014959;28;20166;-68
2022/12/11 02:43:45;;;;;;;1999.90;999.90;;;0.90;1.40;;;;;;5014965;28;20165;-68
2022/12/11 02:46:12;;;;;;;1999.90;999.90;;;0.90;1.00;;;;;;5014891;28;20184;-68
2022/12/11 02:48:40;;;;;;;1999.90;999.90;;;0.90;1.00;;;;;;5014597;28;20189;-68
2022/12/11 02:51:07;;;;;;;1999.90;999.90;;;1.00;1.00;;;;;;5014789;28;20184;-68
2022/12/11 02:53:38;;;;;;;1999.90;999.90;;;1.00;1.00;;;;;;5014427;28;20578;-68
2022/12/11 02:56:23;;;;;;;1999.90;999.90;;;1.10;1.00;;;;;;5014729;28;20188;-68
2022/12/11 02:58:54;;;;;;;1999.90;999.90;;;1.10;1.00;;;;;;5014464;28;20193;-68
2022/12/11 03:01:20;;;;;;;1999.90;999.90;;;1.10;1.00;;;;;;5014647;28;20216;-68
2022/12/11 03:03:46;;;;;;;1999.90;999.90;;;1.10;1.00;;;;;;5014617;28;20184;-68
2022/12/11 03:06:17;;;;;;;1999.90;999.90;;;1.20;1.00;;;;;;5014474;28;20173;-68
2022/12/11 03:08:43;;;;;;;1999.90;999.90;;;1.20;1.00;;;;;;5014350;28;20910;-68
2022/12/11 03:11:10;;;;;;;1999.90;999.90;;;1.20;1.00;;;;;;5014464;28;20239;-68
2022/12/11 03:13:38;;;;;;;1999.90;999.90;;;1.30;1.00;;;;;;5014391;28;20537;-68
2022/12/11 03:16:27;;;;;;;1999.90;999.90;;;1.30;1.00;;;;;;5014293;28;20259;-68
2022/12/11 03:19:18;;;;;;;1999.90;999.90;;;1.30;1.00;;;;;;5014016;28;20208;-68
2022/12/11 03:21:46;;;;;;;1999.90;999.90;;;1.30;1.00;;;;;;5014223;28;20252;-68
2022/12/11 03:24:51;;;;;;;1999.90;999.90;;;1.30;1.00;;;;;;5014325;28;20235;-68
2022/12/11 03:27:36;;;;;;;1999.90;999.90;;;1.30;1.00;;;;;;5012287;28;20185;-68
2022/12/11 03:30:12;;;;;;;1999.90;999.90;;;1.40;1.00;;;;;;5014026;28;20283;-68
2022/12/11 03:32:52;;;;;;;1999.90;999.90;;;1.40;1.00;;;;;;5014125;28;20180;-68
2022/12/11 03:35:30;;;;;;;1999.90;999.90;;;1.40;1.00;;;;;;5013944;28;20215;-68
2022/12/11 03:37:59;;;;;;;1999.90;999.90;;;1.40;1.00;;;;;;5013727;28;20208;-68
2022/12/11 03:40:29;;;;;;;1999.90;999.90;;;1.50;1.00;;;;;;5013862;28;20224;-68
2022/12/11 03:42:56;;;;;;;1999.90;999.90;;;1.50;1.00;;;;;;5013897;28;20165;-68
2022/12/11 03:45:25;;;;;;;1999.90;999.90;;;1.50;1.00;;;;;;5013736;28;20173;-68
2022/12/11 03:47:52;;;;;;;1999.90;999.90;;;1.50;1.00;;;;;;5013462;28;20181;-68
2022/12/11 03:50:20;;;;;;;1999.90;999.90;;;1.50;1.00;;;;;;5013549;28;20216;-68
2022/12/11 03:52:47;;;;;;;1999.90;999.90;;;1.50;1.00;;;;;;5014242;28;20223;-68
2022/12/11 03:55:16;;;;;;;1999.90;999.90;;;1.40;1.00;;;;;;5013539;28;20207;-68
2022/12/11 03:57:42;;;;;;;1999.90;999.90;;;1.40;1.00;;;;;;5013235;28;20177;-68
2022/12/11 04:00:11;;;;;;;1999.90;999.90;;;1.40;1.00;;;;;;5013456;28;20566;-68
2022/12/11 04:02:36;;;;;;;1999.90;999.90;;;1.50;1.00;;;;;;5013410;28;20200;-68
2022/12/11 04:05:02;;;;;;;1999.90;999.90;;;1.50;1.00;;;;;;5012844;28;20701;-68
2022/12/11 04:07:30;;;;;;;1999.90;999.90;;;1.50;1.00;;;;;;5013203;28;20173;-68
2022/12/11 04:09:55;;;;;;;1999.90;999.90;;;1.50;1.00;;;;;;5013306;28;20447;-68
2022/12/11 04:12:21;;;;;;;1999.90;999.90;;;1.60;1.00;;;;;;5013317;28;20659;-68
2022/12/11 04:15:01;;;;;;;1999.90;999.90;;;1.60;1.00;;;;;;5013130;28;20189;-68
2022/12/11 04:25:50;;;;;;;1999.90;999.90;;;1.60;99.90;;;;;;5013311;28;20180;-68
2022/12/11 04:28:15;;;;;;;1999.90;999.90;;;1.50;99.90;;;;;;5012847;28;20177;-68
2022/12/11 04:30:47;;;;;;;1999.90;999.90;;;1.50;99.90;;;;;;5012910;28;20277;-68
2022/12/11 04:33:13;;;;;;;1999.90;999.90;;;1.50;99.90;;;;;;5013041;28;20266;-68
2022/12/11 04:35:39;;;;;;;1999.90;999.90;;;1.50;1.00;;;;;;5012776;28;20229;-68
2022/12/11 04:38:04;;;;;;;1999.90;999.90;;;1.50;1.00;;;;;;5012766;28;20641;-70
2022/12/11 04:40:30;;;;;;;1999.90;999.90;;;1.50;99.90;;;;;;5012769;28;20219;-70
2022/12/11 04:42:55;;;;;;;1999.90;999.90;;;1.50;1.00;;;;;;5012814;28;20180;-68
2022/12/11 04:45:21;;;;;;;1999.90;999.90;;;1.50;1.00;;;;;;5012718;28;20703;-68
2022/12/11 04:47:46;;;;;;;1999.90;999.90;;;1.50;99.90;;;;;;5012368;28;20245;-68
2022/12/11 04:50:13;;;;;;;1999.90;999.90;;;1.40;99.90;;;;;;5012516;28;20205;-68
2022/12/11 04:52:39;;;;;;;1999.90;999.90;;;1.40;99.90;;;;;;5012627;28;20658;-68
2022/12/11 04:55:06;;;;;;;1999.90;999.90;;;1.30;1.00;;;;;;5012534;28;20416;-68
2022/12/11 04:57:32;;;;;;;1999.90;999.90;;;1.30;1.00;;;;;;5012529;28;20173;-68
2022/12/11 04:59:58;;;;;;;1999.90;999.90;;;1.30;1.00;;;;;;5012361;28;20609;-68
2022/12/11 05:02:25;;;;;;;1999.90;999.90;;;1.20;1.00;;;;;;5012580;28;20182;-68
2022/12/11 05:04:51;;;;;;;1999.90;999.90;;;1.30;1.00;;;;;;5012398;28;20188;-68
2022/12/11 05:07:17;;;;;;;1999.90;999.90;;;1.40;1.00;;;;;;5012224;28;20169;-68
2022/12/11 05:09:42;;;;;;;1999.90;999.90;;;1.40;1.00;;;;;;5012308;28;20193;-68
2022/12/11 05:12:08;;;;;;;1999.90;999.90;;;1.40;1.00;;;;;;5012425;28;20543;-68
2022/12/11 05:14:33;;;;;;;1999.90;999.90;;;1.50;1.00;;;;;;5012238;28;20203;-68
2022/12/11 05:16:59;;;;;;;1999.90;999.90;;;1.60;1.00;;;;;;5012188;28;20169;-68
2022/12/11 05:19:26;;;;;;;1999.90;999.90;;;1.60;99.90;;;;;;5012129;28;20979;-68
2022/12/11 05:21:51;;;;;;;1999.90;999.90;;;1.60;99.90;;;;;;5012242;28;20176;-68
2022/12/11 05:24:17;;;;;;;1999.90;999.90;;;1.60;99.90;;;;;;5012303;28;20204;-68
2022/12/11 05:26:43;;;;;;;1999.90;999.90;;;1.60;99.90;;;;;;5012013;28;20182;-68
2022/12/11 05:29:08;;;;;;;1999.90;999.90;;;1.70;99.90;;;;;;5012037;28;20221;-68
2022/12/11 05:31:34;;;;;;;1999.90;999.90;;;1.70;99.90;;;;;;5012199;28;20168;-68
2022/12/11 05:33:59;;;;;;;1999.90;999.90;;;1.70;99.90;;;;;;5012101;28;20195;-68
2022/12/11 05:36:28;;;;;;;1999.90;999.90;;;1.80;99.90;;;;;;5012066;28;20168;-68
2022/12/11 05:38:54;;;;;;;1999.90;999.90;;;1.80;99.90;;;;;;5011846;28;20203;-68
2022/12/11 05:41:23;;;;;;;1999.90;999.90;;;1.80;99.90;;;;;;5012072;28;20259;-68
2022/12/11 05:43:49;;;;;;;1999.90;999.90;;;1.70;99.90;;;;;;5012052;28;20705;-68
2022/12/11 05:46:21;;;;;;;1999.90;999.90;;;1.70;99.90;;;;;;5011942;28;20196;-68
2022/12/11 05:48:50;;;;;;;1999.90;999.90;;;1.70;99.90;;;;;;5011656;28;20264;-68
2022/12/11 05:51:17;;;;;;;1999.90;999.90;;;1.60;99.90;;;;;;5011969;28;20206;-68
2022/12/11 05:53:44;;;;;;;1999.90;999.90;;;1.70;99.90;;;;;;5011869;28;20177;-68
2022/12/11 05:56:13;;;;;;;1999.90;999.90;;;1.70;99.90;;;;;;5011803;28;20698;-68
2022/12/11 05:58:39;;;;;;;1999.90;999.90;;;1.60;99.90;;;;;;5011625;28;20188;-68
2022/12/11 06:01:13;;;;;;;1999.90;999.90;;;1.70;99.90;;;;;;5011839;28;20175;-68
2022/12/11 06:03:39;;;;;;;1999.90;999.90;;;1.80;99.90;;;;;;5011869;28;20400;-68
2022/12/11 06:06:05;;;;;;;1999.90;999.90;;;1.70;99.90;;;;;;5011808;28;20692;-68
2022/12/11 06:08:32;;;;;;;1999.90;999.90;;;1.70;99.90;;;;;;5011487;28;20211;-68
2022/12/11 06:10:58;;;;;;;1999.90;999.90;;;1.70;99.90;;;;;;5011792;28;20166;-68
2022/12/11 06:13:24;;;;;;;1999.90;999.90;;;1.70;99.90;;;;;;5011678;28;20717;-68
2022/12/11 06:15:50;;;;;;;1999.90;999.90;;;1.70;99.90;;;;;;5011553;28;20204;-68
2022/12/11 06:18:16;;;;;;;1999.90;999.90;;;1.60;99.90;;;;;;5011818;28;20189;-68
2022/12/11 06:20:41;;;;;;;1999.90;999.90;;;1.70;99.90;;;;;;5011811;28;20275;-68
2022/12/11 06:23:07;;;;;;;1999.90;999.90;;;1.80;99.90;;;;;;5011690;28;20173;-68
2022/12/11 06:25:33;;;;;;;1999.90;999.90;;;1.80;99.90;;;;;;5011703;28;20165;-68
2022/12/11 06:27:59;;;;;;;1999.90;999.90;;;1.80;99.90;;;;;;5011597;28;20173;-68
2022/12/11 06:30:24;;;;;;;1999.90;999.90;;;1.80;99.90;;;;;;5015231;28;20737;-68
2022/12/11 06:32:50;;;;;;;1999.90;999.90;;;1.80;99.90;;;;;;5015246;28;20705;-68
2022/12/11 06:35:16;;;;;;;1999.90;999.90;;;1.80;99.90;;;;;;5015127;28;20255;-68
2022/12/11 06:37:41;;;;;;;1999.90;999.90;;;1.80;99.90;;;;;;5014905;28;20173;-68
2022/12/11 06:40:09;;;;;;;1999.90;999.90;;;1.80;99.90;;;;;;5015010;28;20267;-68
2022/12/11 06:42:35;;;;;;;1999.90;999.90;;;1.70;99.90;;;;;;5014984;28;20169;-68
2022/12/11 06:45:01;;;;;;;1999.90;999.90;;;1.70;99.90;;;;;;5014911;28;20180;-68
2022/12/11 06:47:28;;;;;;;1999.90;999.90;;;1.70;99.90;;;;;;5014824;28;20872;-68
2022/12/11 06:49:54;;;;;;;1999.90;999.90;;;1.80;99.90;;;;;;5014709;28;20270;-68
2022/12/11 06:52:21;;;;;;;1999.90;999.90;;;1.80;99.90;;;;;;5014877;28;20639;-68
2022/12/11 06:54:46;;;;;;;1999.90;999.90;;;1.80;99.90;;;;;;5014767;28;20577;-68
2022/12/11 06:57:12;;;;;;;1999.90;999.90;;;1.80;99.90;;;;;;5014487;28;20169;-68
2022/12/11 06:59:38;;;;;;;1999.90;999.90;;;1.80;99.90;;;;;;5014521;28;20185;-68
2022/12/11 07:02:03;;;;;;;1999.90;999.90;;;1.80;99.90;;;;;;5014694;28;20172;-68
2022/12/11 07:04:29;;;;;;;1999.90;999.90;;;1.90;99.90;;;;;;5014610;28;20169;-68
2022/12/11 07:06:56;;;;;;;1999.90;999.90;;;1.90;99.90;;;;;;5014380;28;20400;-68
2022/12/11 07:09:22;;;;;;;1999.90;999.90;;;1.90;99.90;;;;;;5014396;28;20224;-68
2022/12/11 07:11:50;;;;;;;1999.90;999.90;;;1.80;99.90;;;;;;5014431;28;20573;-68
2022/12/11 07:14:15;;;;;;;1999.90;999.90;;;1.80;99.90;;;;;;5014309;28;20227;-68
2022/12/11 07:16:41;;;;;;;1999.90;999.90;;;1.80;99.90;;;;;;5014274;28;20169;-68
2022/12/11 07:19:06;;;;;;;1999.90;999.90;;;1.80;99.90;;;;;;5014160;28;20268;-68
2022/12/11 07:21:32;;;;;;;1999.90;999.90;;;1.80;99.90;;;;;;5014311;28;20243;-68
2022/12/11 07:23:58;;;;;;;1999.90;999.90;;;1.80;99.90;;;;;;5014266;28;20243;-68
2022/12/11 07:26:23;;;;;;;1999.90;999.90;;;1.80;99.90;;;;;;5014115;28;20192;-68
2022/12/11 07:28:49;;;;;;;1999.90;999.90;;;1.80;99.90;;;;;;5013872;28;20197;-68
2022/12/11 07:31:20;;;;;;;1999.90;999.90;;;1.90;99.90;;;;;;5014050;28;20541;-68
2022/12/11 07:33:46;;;;;;;1999.90;999.90;;;1.80;99.90;;;;;;5014009;28;20412;-68
2022/12/11 07:36:13;;;;;;;1999.90;999.90;;;1.70;99.90;;;;;;5013825;28;20577;-68
2022/12/11 07:38:40;;;;;;;1999.90;999.90;;;1.70;99.90;;;;;;5013773;28;20176;-68
2022/12/11 07:41:09;;;;;;;1999.90;999.90;;;1.80;99.90;;;;;;5012683;28;20208;-68
2022/12/11 07:43:36;;;;;;;1999.90;999.90;;;1.80;99.90;;;;;;5013908;28;20173;-68
2022/12/11 07:46:04;;;;;;;1999.90;999.90;;;1.80;99.90;;;;;;5013728;28;20173;-68
2022/12/11 07:48:30;;;;;;;1999.90;999.90;;;1.70;99.90;;;;;;5013538;28;20639;-68
2022/12/11 07:51:05;;;;;;;1999.90;999.90;;;1.70;99.90;;;;;;5013668;28;20279;-68
2022/12/11 07:53:31;;;;;;;1999.90;999.90;;;1.70;99.90;;;;;;5018606;28;20411;-68
2022/12/11 07:55:58;;;;;;;1999.90;999.90;;;1.70;99.90;;;;;;5033235;28;20231;-68
2022/12/11 07:58:24;;;;;;;1999.90;999.90;;;1.80;99.90;;;;;;5033050;28;20215;-68
2022/12/11 08:00:50;;;;;;;1999.90;999.90;;;1.80;99.90;;;;;;5033316;28;20180;-68
2022/12/11 08:03:16;;;;;;;1999.90;999.90;;;1.70;99.90;;;;;;5033360;28;20535;-68
2022/12/11 08:05:48;;;;;;;1999.90;999.90;;;1.80;99.90;;;;;;5033226;28;20176;-68
2022/12/11 08:08:13;;;;;;;1999.90;999.90;;;1.80;99.90;;;;;;5032938;28;20180;-68
2022/12/11 08:10:39;;;;;;;1999.90;999.90;;;1.80;99.90;;;;;;5033078;28;20696;-68
2022/12/11 08:13:05;;;;;;;1999.90;999.90;;;1.70;99.90;;;;;;5033074;28;20172;-68
2022/12/11 08:15:30;;;;;;;1999.90;999.90;;;1.70;99.90;;;;;;5032982;28;20269;-68
2022/12/11 08:17:56;;;;;;;1999.90;999.90;;;1.70;99.90;;;;;;5032687;28;20233;-68
2022/12/11 08:20:21;;;;;;;1999.90;999.90;;;1.70;99.90;;;;;;5032905;28;20180;-68
2022/12/11 08:22:47;;;;;;;1999.90;999.90;;;1.80;99.90;;;;;;5032941;28;20222;-68
2022/12/11 08:25:12;;;;;;;1999.90;999.90;;;1.80;99.90;;;;;;5032789;28;20576;-68
2022/12/11 08:27:38;;;;;;;1999.90;999.90;;;1.90;99.90;;;;;;5032607;28;20247;-68
2022/12/11 08:30:04;;;;;;;1999.90;999.90;;;1.90;99.90;;;;;;5032731;28;20685;-68
2022/12/11 08:32:30;;;;;;;1999.90;999.90;;;1.90;99.90;;;;;;5033038;28;20669;-68
2022/12/11 08:34:55;;;;;;;1999.90;999.90;;;1.80;99.90;;;;;;5032666;28;20196;-68
2022/12/11 08:37:21;;;;;;;1999.90;999.90;;;1.90;99.90;;;;;;5032432;28;20180;-68
2022/12/11 08:39:47;;;;;;;1999.90;999.90;;;1.90;99.90;;;;;;5032552;28;20199;-68
2022/12/11 08:42:12;;;;;;;1999.90;999.90;;;1.90;99.90;;;;;;5032569;28;20172;-68
2022/12/11 08:44:38;;;;;;;1999.90;999.90;;;1.90;99.90;;;;;;5032471;28;20207;-68
2022/12/11 08:47:03;;;;;;;1999.90;999.90;;;2.00;99.90;;;;;;5032368;28;20172;-68
2022/12/11 08:49:29;;;;;;;1999.90;999.90;;;2.10;99.90;;;;;;5032198;28;20254;-67
2022/12/11 08:51:54;;;;;;;1999.90;999.90;;;2.10;99.90;;;;;;5032120;28;20199;-67
2022/12/11 08:54:20;;;;;;;1999.90;999.90;;;2.10;99.90;;;;;;5032432;28;20235;-68
2022/12/11 08:56:45;;;;;;;1999.90;999.90;;;2.10;99.90;;;;;;5032164;28;20222;-68
2022/12/11 08:59:11;;;;;;;1999.90;999.90;;;2.10;99.90;;;;;;5032147;28;20188;-68
2022/12/11 09:01:37;;;;;;;1999.90;999.90;;;2.20;99.90;;;;;;5032310;28;20179;-68
2022/12/11 09:04:02;;;;;;;1999.90;999.90;;;2.30;99.90;;;;;;5032411;28;20180;-68
2022/12/11 09:06:31;;;;;;;1999.90;999.90;;;2.40;99.90;;;;;;5031999;28;20536;-67
2022/12/11 09:08:59;;;;;;;1999.90;999.90;;;2.40;33.90;;;;;;5031893;28;20275;-68
2022/12/11 09:11:27;;;;;;;1999.90;999.90;;;2.30;1.00;;;;;;5032225;28;20530;-68
2022/12/11 09:13:53;;;;;;;1999.90;999.90;;;2.40;1.00;;;;;;5032043;28;20172;-68
2022/12/11 09:16:22;;;;;;;1999.90;999.90;;;2.40;1.00;;;;;;5031920;28;20259;-68
2022/12/11 09:18:50;;;;;;;1999.90;999.90;;;2.40;1.00;;;;;;5031900;28;20554;-68
2022/12/11 09:21:18;;;;;;;1999.90;999.90;;;2.40;1.00;;;;;;5031904;28;20172;-68
2022/12/11 09:23:44;;;;;;;1999.90;999.90;;;2.40;1.00;;;;;;5032149;28;20180;-68
2022/12/11 09:26:12;;;;;;;1999.90;999.90;;;2.40;1.00;;;;;;5031883;28;20175;-68
2022/12/11 09:28:38;;;;;;;1999.90;999.90;;;2.50;1.00;;;;;;5031716;28;20188;-67
2022/12/11 09:31:09;;;;;;;1999.90;999.90;;;2.40;1.00;;;;;;5031778;28;20202;-68
2022/12/11 09:33:35;;;;;;;1999.90;999.90;;;2.50;1.00;;;;;;5031711;28;20650;-68
2022/12/11 09:36:01;;;;;;;1999.90;999.90;;;2.50;1.00;;;;;;5031655;28;20223;-68
2022/12/11 09:38:27;;;;;;;1999.90;999.90;;;2.60;1.00;;;;;;5031529;28;20183;-68
2022/12/11 09:40:53;;;;;;;1999.90;999.90;;;2.70;1.00;;;;;;5031841;28;20177;-67
2022/12/11 09:43:30;;;;;;;1999.90;999.90;;;2.70;99.90;;;;;;5031671;28;20188;-68
2022/12/11 09:45:59;;;;;;;1999.90;999.90;;;2.70;99.90;;;;;;5031632;28;20407;-69
2022/12/11 09:48:25;;;;;;;1999.90;999.90;;;2.70;99.90;;;;;;5031391;28;20411;-68
2022/12/11 09:50:53;;;;;;;1999.90;999.90;;;2.70;99.90;;;;;;5031662;28;20680;-68
2022/12/11 09:53:50;;;;;;;1999.90;999.90;;;2.80;99.90;;;;;;5032084;28;20161;-68
2022/12/11 09:56:24;;;;;;;1999.90;999.90;;;2.70;99.90;;;;;;5023369;28;20230;-68
2022/12/11 09:59:11;;;;;;;1999.90;999.90;;;2.70;99.90;;;;;;5031410;28;20433;-67
2022/12/11 10:02:23;;;;;;;1999.90;999.90;;;2.80;91.30;;;;;;5031698;28;20173;-67
2022/12/11 10:05:07;;;;;;;1999.90;999.90;;;2.80;99.90;;;;;;5024421;28;20202;-67
2022/12/11 10:07:35;;;;;;;1999.90;999.90;;;2.90;1.00;;;;;;5035248;28;20259;-68
2022/12/11 10:10:16;;;;;;;1999.90;999.90;;;2.80;1.00;;;;;;5035299;28;20235;-68
2022/12/11 10:12:44;;;;;;;1999.90;999.90;;;2.90;35.10;;;;;;5035432;28;20176;-68
2022/12/11 10:15:18;;;;;;;1999.90;999.90;;;2.90;83.80;;;;;;5035274;28;20196;-68
2022/12/11 10:17:44;;;;;;;1999.90;999.90;;;2.90;99.90;;;;;;5035257;28;20176;-68
2022/12/11 10:20:19;;;;;;;1999.90;999.90;;;3.00;99.90;;;;;;5035365;28;20555;-68
2022/12/11 10:22:47;;;;;;;1999.90;999.90;;;3.10;99.90;;;;;;5035329;28;20680;-67
2022/12/11 10:25:19;;;;;;;1999.90;999.90;;;3.10;99.90;;;;;;5035194;28;20212;-68
2022/12/11 10:27:45;;;;;;;1999.90;999.90;;;3.10;99.90;;;;;;5034779;28;20490;-68
2022/12/11 10:30:27;;;;;;;1999.90;999.90;;;3.20;99.90;;;;;;5035003;28;20898;-68
2022/12/11 10:33:21;;;;;;;1999.90;999.90;;;3.20;67.50;;;;;;5035095;28;20176;-68
2022/12/11 10:35:57;;;;;;;1999.90;999.90;;;3.20;1.00;;;;;;5034825;28;20204;-67
2022/12/11 10:38:31;;;;;;;1999.90;999.90;;;3.20;1.00;;;;;;5034582;28;20255;-68
2022/12/11 10:41:11;;;;;;;1999.90;999.90;;;3.20;3.20;;;;;;5034876;28;20198;-68
2022/12/11 10:43:38;;;;;;;1999.90;999.90;;;3.30;38.90;;;;;;5034851;28;20190;-68
2022/12/11 10:46:06;;;;;;;1999.90;999.90;;;3.40;99.90;;;;;;5034669;28;20488;-68
2022/12/11 10:48:32;;;;;;;1999.90;999.90;;;3.40;1.00;;;;;;5034403;28;20403;-68
2022/12/11 10:51:04;;;;;;;1999.90;999.90;;;3.30;1.00;;;;;;5032797;28;20438;-68
2022/12/11 10:53:32;;;;;;;1999.90;999.90;;;3.30;1.00;;;;;;5033296;28;20184;-67
2022/12/11 10:55:59;;;;;;;1999.90;999.90;;;3.20;99.90;;;;;;5033376;28;20470;-68
2022/12/11 10:58:32;;;;;;;1999.90;999.90;;;3.10;99.90;;;;;;5033055;28;20180;-67
2022/12/11 11:01:15;;;;;;;1999.90;999.90;;;3.10;99.90;;;;;;5033748;28;20176;-67
2022/12/11 11:03:56;;;;;;;1999.90;999.90;;;3.10;99.90;;;;;;5033406;28;20727;-68
2022/12/11 11:06:22;;;;;;;1999.90;999.90;;;3.10;1.00;;;;;;5033679;28;20541;-68
2022/12/11 11:08:51;;;;;;;1999.90;999.90;;;3.10;1.00;;;;;;5033308;28;20196;-68
2022/12/11 11:11:23;;;;;;;1999.90;999.90;;;3.10;1.00;;;;;;5033790;28;20165;-68
2022/12/11 11:13:49;;;;;;;1999.90;999.90;;;3.00;99.90;;;;;;5033462;28;20260;-68
2022/12/11 11:16:18;;;;;;;1999.90;999.90;;;3.00;99.90;;;;;;5034092;28;20231;-68
2022/12/11 11:18:53;;;;;;;1999.90;999.90;;;2.90;1.00;;;;;;5033762;28;20275;-68
2022/12/11 11:21:24;;;;;;;1999.90;999.90;;;3.00;1.00;;;;;;5033772;28;20164;-68
2022/12/11 11:23:51;;;;;;;1999.90;999.90;;;2.90;1.00;;;;;;5030203;28;20176;-69
2022/12/11 11:26:18;;;;;;;1999.90;999.90;;;3.00;1.00;;;;;;5033306;28;20545;-69
2022/12/11 11:28:53;;;;;;;1999.90;999.90;;;2.90;99.90;;;;;;5033361;28;20704;-68
2022/12/11 11:31:29;;;;;;;1999.90;999.90;;;2.80;1.00;;;;;;5032937;28;20263;-68
2022/12/11 11:34:05;;;;;;;1999.90;999.90;;;2.80;1.00;;;;;;5033153;28;20156;-69
2022/12/11 11:36:33;;;;;;;1999.90;999.90;;;2.80;1.00;;;;;;5033124;28;20250;-68
2022/12/11 11:39:20;;;;;;;1999.90;999.90;;;2.80;1.00;;;;;;5032750;28;20176;-68
2022/12/11 11:42:07;;;;;;;1999.90;999.90;;;2.90;1.00;;;;;;5033477;28;20399;-68
2022/12/11 11:44:46;;;;;;;1999.90;999.90;;;3.00;1.00;;;;;;5033572;28;20172;-66
2022/12/11 11:47:29;;;;;;;1999.90;999.90;;;3.20;1.00;;;;;;5042373;28;20218;-67
2022/12/11 11:50:12;;;;;;;1999.90;999.90;;;3.50;99.90;;;;;;5035659;28;20212;-67
2022/12/11 11:52:46;;;;;;;1999.90;999.90;;;3.50;1.00;;;;;;5035319;28;20219;-67
2022/12/11 11:55:19;;;;;;;1999.90;999.90;;;3.60;1.00;;;;;;5033984;28;20202;-68
2022/12/11 11:58:04;;;;;;;1999.90;999.90;;;3.60;45.50;;;;;;5032406;28;20443;-68
2022/12/11 12:00:30;;;;;;;1999.90;999.90;;;3.80;99.90;;;;;;5032469;28;20522;-67
2022/12/11 12:03:09;;;;;;;1999.90;999.90;;;3.80;15.30;;;;;;5024754;28;20483;-67
2022/12/11 12:05:51;;;;;;;1999.90;999.90;;;3.90;99.90;;;;;;5028321;28;20186;-67
2022/12/11 12:08:42;;;;;;;1999.90;999.90;;;3.90;99.90;;;;;;5012056;28;20388;-67
2022/12/11 12:11:47;;;;;;;1999.90;999.90;;;3.80;61.90;;;;;;5012829;28;20478;-67
2022/12/11 12:14:24;;;;;;;1999.90;999.90;;;3.50;1.00;;;;;;5010006;28;21038;-67
2022/12/11 12:17:08;;;;;;;1999.90;999.90;;;3.30;6.00;;;;;;5012240;28;20168;-68
2022/12/11 12:19:46;;;;;;;1999.90;999.90;;;3.10;99.90;;;;;;5022196;28;20814;-68
2022/12/11 12:22:29;;;;;;;1999.90;999.90;;;3.00;1.00;;;;;;5033523;28;20445;-67
2022/12/11 12:25:06;;;;;;;1999.90;999.90;;;3.00;20.50;;;;;;5014512;28;20251;-67
2022/12/11 12:28:03;;;;;;;1999.90;999.90;;;3.20;99.90;;;;;;5011873;28;20238;-68
2022/12/11 12:30:47;;;;;;;1999.90;999.90;;;3.50;99.90;;;;;;5012035;28;20192;-67
2022/12/11 12:33:33;;;;;;;1999.90;999.90;;;3.50;99.90;;;;;;5031737;28;20518;-69
2022/12/11 12:36:10;;;;;;;1999.90;999.90;;;3.70;99.90;;;;;;5045116;28;20624;-66
2022/12/11 12:38:59;;;;;;;1999.90;999.90;;;3.90;99.90;;;;;;5031369;28;20986;-66